Time;durP1;ratioP1;P1;durP2;ratioP2;P2;SDS_P1;SDS_P2;PMS_P1;PMS_P2;Temp;Humidity;BMP_temperature;BMP_pressure;BME280_temperature;BME280_humidity;BME280_pressure;Samples;Min_cycle;Max_cycle;Signal;HPM_P1;HPM_P2
2021/06/25 00:01:12;;;;;;;16.08;10.50;;;9.80;99.90;;;;;;5095596;28;20462;-76
2021/06/25 00:03:39;;;;;;;14.73;10.27;;;9.70;99.90;;;;;;5094202;28;20036;-75
2021/06/25 00:06:05;;;;;;;15.30;9.35;;;9.70;99.90;;;;;;5096733;28;20062;-77
2021/06/25 00:08:31;;;;;;;14.68;10.38;;;9.70;99.90;;;;;;5073041;28;20055;-77
2021/06/25 00:10:57;;;;;;;14.88;9.93;;;9.60;99.90;;;;;;5086675;28;20032;-77
2021/06/25 00:13:23;;;;;;;15.65;10.98;;;9.60;99.90;;;;;;5095786;28;20039;-76
2021/06/25 00:15:49;;;;;;;15.93;11.02;;;9.60;99.90;;;;;;5095909;28;20047;-77
2021/06/25 00:18:14;;;;;;;15.07;9.85;;;9.50;99.90;;;;;;5075932;28;20107;-75
2021/06/25 00:20:41;;;;;;;15.70;10.52;;;9.50;99.90;;;;;;5075420;28;20043;-77
2021/06/25 00:23:06;;;;;;;;;;;9.40;99.90;;;;;;5095526;28;20497;-76
2021/06/25 00:25:32;;;;;;;17.17;11.05;;;9.40;99.90;;;;;;5075052;28;20073;-77
2021/06/25 00:27:59;;;;;;;15.85;10.60;;;9.40;99.90;;;;;;5061330;28;20036;-75
2021/06/25 00:30:25;;;;;;;17.80;11.15;;;9.30;99.90;;;;;;5039912;28;20033;-77
2021/06/25 00:32:51;;;;;;;15.90;10.68;;;9.30;99.90;;;;;;5089261;28;20333;-77
2021/06/25 00:35:16;;;;;;;17.05;10.57;;;9.30;99.90;;;;;;5094024;28;20435;-76
2021/06/25 00:37:44;;;;;;;14.50;10.32;;;9.30;99.90;;;;;;5041657;28;20044;-76
2021/06/25 00:40:11;;;;;;;15.63;10.70;;;9.20;99.90;;;;;;5085042;28;20038;-75
2021/06/25 00:42:38;;;;;;;17.80;12.38;;;9.20;99.90;;;;;;5096349;28;20097;-76
2021/06/25 00:45:16;;;;;;;17.90;11.80;;;9.20;99.90;;;;;;5094764;28;20067;-77
2021/06/25 00:47:49;;;;;;;17.65;11.05;;;9.20;99.90;;;;;;5094648;28;20386;-75
2021/06/25 00:50:20;;;;;;;20.23;11.75;;;9.20;99.90;;;;;;5095020;28;20086;-77
2021/06/25 00:52:53;;;;;;;15.38;10.10;;;9.10;99.90;;;;;;5093654;28;20036;-77
2021/06/25 00:55:21;;;;;;;17.08;10.52;;;9.10;99.90;;;;;;5093299;28;20098;-76
2021/06/25 00:57:47;;;;;;;14.52;9.60;;;9.10;99.90;;;;;;5074855;28;20048;-78
2021/06/25 01:00:14;;;;;;;17.27;11.10;;;9.10;99.90;;;;;;5072555;28;20451;-77
2021/06/25 01:02:40;;;;;;;15.23;10.25;;;9.00;99.90;;;;;;5092880;28;20047;-76
2021/06/25 01:05:08;;;;;;;14.02;10.15;;;9.00;99.90;;;;;;5062555;28;20063;-77
2021/06/25 01:07:35;;;;;;;16.00;10.95;;;8.90;99.90;;;;;;5092754;28;20067;-75
2021/06/25 01:10:09;;;;;;;17.85;11.65;;;8.90;99.90;;;;;;5088524;28;20083;-76
2021/06/25 01:12:40;;;;;;;16.70;11.32;;;8.80;99.90;;;;;;5093452;28;20059;-75
2021/06/25 01:15:06;;;;;;;18.05;11.35;;;8.80;99.90;;;;;;5092752;28;20056;-77
2021/06/25 01:17:35;;;;;;;19.83;12.32;;;8.80;99.90;;;;;;5074958;28;20082;-78
2021/06/25 01:20:07;;;;;;;20.15;12.18;;;8.70;99.90;;;;;;5092552;28;20035;-76
2021/06/25 01:22:34;;;;;;;18.15;12.10;;;8.70;99.90;;;;;;5089908;28;20040;-76
2021/06/25 01:25:21;;;;;;;18.33;11.90;;;8.70;99.90;;;;;;5074403;28;20553;-77
2021/06/25 01:27:48;;;;;;;;;;;8.70;99.90;;;;;;5095720;28;20040;-77
2021/06/25 01:30:25;;;;;;;17.08;11.05;;;8.70;99.90;;;;;;5094875;28;19916;-77
2021/06/25 01:32:51;;;;;;;21.83;12.52;;;8.60;99.90;;;;;;5093068;28;20423;-78
2021/06/25 01:35:17;;;;;;;24.70;14.95;;;8.70;99.90;;;;;;5062499;28;20041;-76
2021/06/25 01:37:44;;;;;;;;;;;8.70;99.90;;;;;;5053046;28;20478;-77
2021/06/25 01:40:12;;;;;;;22.90;13.27;;;8.60;99.90;;;;;;5084731;28;19964;-74
2021/06/25 01:42:41;;;;;;;22.65;15.05;;;8.60;99.90;;;;;;5073965;28;20123;-76
2021/06/25 01:45:13;;;;;;;22.17;14.52;;;8.60;99.90;;;;;;5074457;28;20064;-77
2021/06/25 01:47:41;;;;;;;21.63;13.98;;;8.60;99.90;;;;;;5091616;28;20529;-75
2021/06/25 01:50:16;;;;;;;19.08;13.40;;;8.60;99.90;;;;;;5091819;28;20051;-77
2021/06/25 01:52:43;;;;;;;18.58;12.20;;;8.50;99.90;;;;;;5079315;28;20032;-76
2021/06/25 01:55:10;;;;;;;19.90;12.80;;;8.70;99.90;;;;;;5072849;28;20060;-77
2021/06/25 01:57:36;;;;;;;22.63;13.48;;;8.50;99.90;;;;;;5092000;28;20078;-77
2021/06/25 02:00:03;;;;;;;18.83;12.70;;;8.50;99.90;;;;;;5053240;28;20151;-77
2021/06/25 02:02:29;;;;;;;17.88;11.82;;;8.50;99.90;;;;;;5050084;28;20048;-76
2021/06/25 02:04:55;;;;;;;19.48;11.95;;;8.40;99.90;;;;;;5039064;28;20039;-75
2021/06/25 02:07:24;;;;;;;18.60;12.52;;;8.40;99.90;;;;;;5092022;28;20093;-77
2021/06/25 02:09:49;;;;;;;19.85;12.50;;;8.30;99.90;;;;;;5077271;28;20037;-75
2021/06/25 02:12:16;;;;;;;21.02;12.15;;;8.30;99.90;;;;;;5047647;28;20398;-76
2021/06/25 02:14:42;;;;;;;19.02;12.30;;;8.30;99.90;;;;;;5072166;28;20037;-74
2021/06/25 02:17:08;;;;;;;21.83;13.07;;;8.30;99.90;;;;;;5048120;28;20095;-74
2021/06/25 02:19:34;;;;;;;18.95;13.02;;;8.20;99.90;;;;;;5068985;28;20060;-75
2021/06/25 02:22:00;;;;;;;18.98;12.60;;;8.20;99.90;;;;;;5090759;28;20044;-75
2021/06/25 02:24:26;;;;;;;22.25;14.13;;;8.20;99.90;;;;;;5092232;28;20036;-75
2021/06/25 02:26:52;;;;;;;20.00;13.25;;;8.20;99.90;;;;;;5082283;28;20096;-74
2021/06/25 02:29:18;;;;;;;18.67;12.68;;;8.20;99.90;;;;;;5059872;28;20481;-74
2021/06/25 02:31:44;;;;;;;20.50;12.77;;;8.20;99.90;;;;;;5090812;28;20474;-75
2021/06/25 02:34:10;;;;;;;17.33;11.25;;;8.20;99.90;;;;;;5071443;28;20044;-73
2021/06/25 02:36:35;;;;;;;19.33;11.45;;;8.20;99.90;;;;;;5063796;28;20033;-73
2021/06/25 02:39:02;;;;;;;18.77;12.23;;;8.20;99.90;;;;;;5055434;28;20367;-74
2021/06/25 02:41:28;;;;;;;20.67;13.27;;;8.20;99.90;;;;;;5091386;28;20047;-73
2021/06/25 02:43:54;;;;;;;20.75;14.02;;;8.20;99.90;;;;;;5092043;28;20032;-75
2021/06/25 02:46:22;;;;;;;21.48;13.85;;;8.10;99.90;;;;;;5048086;28;20036;-75
2021/06/25 02:48:48;;;;;;;19.10;13.00;;;8.20;99.90;;;;;;5087462;28;20036;-75
2021/06/25 02:51:14;;;;;;;26.98;15.90;;;8.10;99.90;;;;;;5063157;28;20044;-75
2021/06/25 02:53:40;;;;;;;28.58;17.08;;;8.10;99.90;;;;;;5043150;28;20039;-73
2021/06/25 02:56:06;;;;;;;26.15;16.17;;;8.10;99.90;;;;;;5090988;28;20036;-75
2021/06/25 02:58:32;;;;;;;24.80;15.13;;;8.10;99.90;;;;;;5059609;28;20044;-74
2021/06/25 03:00:58;;;;;;;22.88;15.23;;;8.10;99.90;;;;;;5089947;28;20040;-74
2021/06/25 03:03:25;;;;;;;;;;;8.10;99.90;;;;;;5092183;28;21244;-73
2021/06/25 03:05:51;;;;;;;24.42;14.60;;;8.10;99.90;;;;;;5106561;28;19921;-74
2021/06/25 03:08:17;;;;;;;21.70;14.38;;;8.10;99.90;;;;;;5053405;28;20032;-74
2021/06/25 03:10:46;;;;;;;20.90;12.95;;;8.20;99.90;;;;;;5051019;28;20048;-74
2021/06/25 03:13:12;;;;;;;23.38;14.38;;;8.10;99.90;;;;;;5091415;28;20043;-74
2021/06/25 03:15:38;;;;;;;30.90;15.82;;;8.00;99.90;;;;;;5077414;28;20052;-75
2021/06/25 03:18:04;;;;;;;21.33;13.30;;;8.00;99.90;;;;;;5077159;28;20144;-75
2021/06/25 03:20:31;;;;;;;23.33;14.45;;;8.00;99.90;;;;;;5094778;28;20032;-74
2021/06/25 03:22:57;;;;;;;21.55;13.15;;;8.00;99.90;;;;;;5094501;28;20047;-76
2021/06/25 03:25:23;;;;;;;21.65;14.77;;;8.00;99.90;;;;;;5075964;28;20389;-74
2021/06/25 03:27:49;;;;;;;19.10;12.52;;;8.00;99.90;;;;;;5094074;28;20119;-75
2021/06/25 03:30:16;;;;;;;18.23;12.60;;;7.90;99.90;;;;;;5049775;28;20440;-75
2021/06/25 03:32:42;;;;;;;20.77;12.55;;;7.90;99.90;;;;;;5090239;28;20036;-74
2021/06/25 03:35:09;;;;;;;21.33;13.43;;;7.90;99.90;;;;;;5094661;28;20481;-76
2021/06/25 03:37:35;;;;;;;23.00;15.15;;;7.90;99.90;;;;;;5095083;28;20477;-76
2021/06/25 03:40:08;;;;;;;20.85;12.15;;;7.90;99.90;;;;;;5075617;28;20050;-75
2021/06/25 03:42:34;;;;;;;19.23;12.88;;;7.90;99.90;;;;;;5076627;28;20524;-75
2021/06/25 03:45:00;;;;;;;22.23;12.90;;;7.90;99.90;;;;;;5094762;28;20389;-75
2021/06/25 03:47:25;;;;;;;24.90;15.43;;;8.00;99.90;;;;;;5076839;28;20032;-75
2021/06/25 03:49:51;;;;;;;21.20;13.65;;;8.00;99.90;;;;;;5094026;28;20119;-76
2021/06/25 03:52:17;;;;;;;23.17;14.50;;;8.10;99.90;;;;;;5059197;28;20159;-76
2021/06/25 03:54:44;;;;;;;22.58;14.10;;;8.10;99.90;;;;;;5040547;28;20041;-76
2021/06/25 03:57:10;;;;;;;23.20;13.90;;;8.20;99.90;;;;;;5092313;28;20047;-77
2021/06/25 03:59:38;;;;;;;23.08;14.52;;;8.10;99.90;;;;;;5076546;28;20488;-76
2021/06/25 04:02:09;;;;;;;22.17;13.60;;;8.20;99.90;;;;;;5041518;28;20047;-75
2021/06/25 04:04:39;;;;;;;23.50;13.88;;;8.20;99.90;;;;;;5057319;28;20082;-76
2021/06/25 04:07:06;;;;;;;21.17;13.55;;;8.30;99.90;;;;;;5093753;28;20036;-75
2021/06/25 04:09:36;;;;;;;22.33;14.57;;;8.40;99.90;;;;;;5094932;28;20036;-74
2021/06/25 04:12:03;;;;;;;26.77;16.33;;;8.40;99.90;;;;;;5067377;28;20041;-76
2021/06/25 04:14:29;;;;;;;24.60;15.95;;;8.50;99.90;;;;;;5088826;28;20139;-77
2021/06/25 04:16:55;;;;;;;31.08;17.40;;;8.50;99.90;;;;;;5075704;28;20040;-75
2021/06/25 04:19:21;;;;;;;26.42;16.00;;;8.60;99.90;;;;;;5095224;28;20097;-77
2021/06/25 04:21:47;;;;;;;28.15;16.38;;;8.70;99.90;;;;;;5083028;28;20047;-76
2021/06/25 04:24:15;;;;;;;26.63;16.25;;;8.80;99.90;;;;;;5065026;28;20477;-76
2021/06/25 04:26:41;;;;;;;32.70;18.33;;;8.90;99.90;;;;;;5074918;28;20063;-76
2021/06/25 04:29:12;;;;;;;31.20;17.45;;;9.00;99.90;;;;;;5092837;28;20141;-76
2021/06/25 04:31:47;;;;;;;32.00;19.10;;;9.10;99.90;;;;;;5076444;28;20040;-77
2021/06/25 04:34:14;;;;;;;37.85;22.08;;;9.20;99.90;;;;;;5093759;28;20481;-76
2021/06/25 04:36:40;;;;;;;37.88;21.75;;;9.50;99.90;;;;;;5049309;28;20055;-76
2021/06/25 04:39:09;;;;;;;35.53;20.70;;;9.50;99.90;;;;;;5042732;28;20040;-77
2021/06/25 04:41:35;;;;;;;37.85;21.30;;;9.60;99.90;;;;;;5065159;28;20473;-75
2021/06/25 04:44:01;;;;;;;;;;;9.80;99.90;;;;;;5040285;28;20089;-77
2021/06/25 04:46:28;;;;;;;37.22;21.90;;;9.90;99.90;;;;;;5109816;28;19916;-75
2021/06/25 04:48:54;;;;;;;;;;;10.10;99.90;;;;;;5075706;28;20040;-75
2021/06/25 04:51:20;;;;;;;33.97;21.20;;;10.20;99.90;;;;;;5109161;28;19919;-75
2021/06/25 04:53:46;;;;;;;33.60;21.95;;;10.30;99.90;;;;;;5092932;28;20043;-75
2021/06/25 04:56:12;;;;;;;34.72;21.92;;;10.60;99.90;;;;;;5074518;28;20111;-75
2021/06/25 04:58:38;;;;;;;33.72;21.10;;;10.70;99.90;;;;;;5070801;28;20033;-74
2021/06/25 05:01:06;;;;;;;28.38;19.15;;;10.90;99.90;;;;;;5055754;28;20128;-76
2021/06/25 05:03:36;;;;;;;35.58;20.50;;;11.00;99.90;;;;;;5068725;28;20086;-75
2021/06/25 05:06:03;;;;;;;28.33;18.27;;;11.20;99.90;;;;;;5023016;28;20048;-76
2021/06/25 05:08:29;;;;;;;27.23;17.33;;;11.30;99.90;;;;;;5092307;28;20036;-75
2021/06/25 05:10:55;;;;;;;24.60;16.40;;;11.40;99.90;;;;;;5073867;28;20085;-75
2021/06/25 05:13:21;;;;;;;26.52;16.58;;;11.50;99.90;;;;;;5074979;28;20040;-74
2021/06/25 05:15:47;;;;;;;28.30;18.13;;;11.60;99.90;;;;;;5074895;28;20048;-75
2021/06/25 05:18:21;;;;;;;26.88;17.63;;;11.70;99.90;;;;;;5092925;28;20154;-77
2021/06/25 05:20:48;;;;;;;21.98;14.38;;;11.80;99.90;;;;;;5092901;28;20051;-75
2021/06/25 05:23:15;;;;;;;23.42;15.27;;;11.90;99.90;;;;;;5058327;28;20443;-76
2021/06/25 05:25:42;;;;;;;23.45;15.52;;;12.10;99.90;;;;;;5057384;28;20040;-77
2021/06/25 05:28:09;;;;;;;22.95;15.52;;;12.10;99.90;;;;;;5092235;28;20438;-77
2021/06/25 05:30:35;;;;;;;20.13;15.00;;;12.30;99.90;;;;;;5075238;28;20032;-76
2021/06/25 05:33:03;;;;;;;22.92;15.02;;;12.40;99.90;;;;;;5090175;28;20039;-75
2021/06/25 05:35:32;;;;;;;23.35;15.38;;;12.50;99.90;;;;;;5073974;28;20044;-76
2021/06/25 05:38:03;;;;;;;20.48;14.70;;;12.60;99.90;;;;;;5054872;28;20036;-77
2021/06/25 05:40:29;;;;;;;21.10;15.38;;;12.70;99.90;;;;;;5069327;28;20512;-75
2021/06/25 05:42:55;;;;;;;20.38;14.23;;;12.80;99.90;;;;;;5093331;28;20051;-76
2021/06/25 05:45:22;;;;;;;21.80;13.75;;;12.90;99.90;;;;;;5074637;28;20059;-75
2021/06/25 05:47:48;;;;;;;21.13;14.05;;;13.10;99.90;;;;;;5092865;28;20471;-74
2021/06/25 05:50:15;;;;;;;20.05;13.77;;;13.10;99.90;;;;;;5057849;28;20082;-76
2021/06/25 05:52:42;;;;;;;18.33;13.38;;;13.20;99.90;;;;;;5066508;28;20041;-77
2021/06/25 05:55:09;;;;;;;19.08;13.25;;;13.30;99.90;;;;;;5039362;28;20493;-75
2021/06/25 05:57:36;;;;;;;17.95;12.50;;;13.40;99.90;;;;;;5065383;28;20036;-75
2021/06/25 06:00:04;;;;;;;20.95;13.30;;;13.50;99.90;;;;;;5087163;28;20046;-76
2021/06/25 06:02:30;;;;;;;23.70;12.98;;;13.60;99.90;;;;;;5092463;28;20511;-76
2021/06/25 06:04:56;;;;;;;17.83;13.05;;;13.70;99.90;;;;;;5091671;28;20124;-77
2021/06/25 06:07:21;;;;;;;16.27;11.85;;;13.90;99.90;;;;;;5092437;28;20039;-77
2021/06/25 06:09:47;;;;;;;16.98;12.57;;;14.00;99.90;;;;;;5057313;28;20044;-77
2021/06/25 06:12:13;;;;;;;18.77;13.07;;;14.10;99.90;;;;;;5091650;28;20480;-75
2021/06/25 06:14:39;;;;;;;18.00;12.68;;;14.20;99.90;;;;;;5044404;28;20402;-75
2021/06/25 06:17:05;;;;;;;15.98;11.55;;;14.30;99.90;;;;;;5095824;28;20362;-75
2021/06/25 06:19:38;;;;;;;;;;;14.30;99.90;;;;;;5075036;28;20104;-78
2021/06/25 06:33:15;;;;;;;15.98;11.65;;;15.00;99.90;;;;;;5058086;28;20041;-75
2021/06/25 06:35:41;;;;;;;16.63;11.88;;;15.20;99.90;;;;;;5086751;28;20036;-77
2021/06/25 06:38:07;;;;;;;14.13;10.68;;;15.40;99.90;;;;;;5092122;28;20615;-75
2021/06/25 06:40:33;;;;;;;17.27;10.38;;;15.60;99.90;;;;;;5091390;28;20110;-76
2021/06/25 06:43:00;;;;;;;14.88;11.50;;;15.70;99.90;;;;;;5073296;28;20121;-76
2021/06/25 06:45:26;;;;;;;15.27;11.50;;;15.90;99.90;;;;;;5059399;28;20032;-77
2021/06/25 06:47:52;;;;;;;13.65;11.38;;;16.00;99.90;;;;;;5064621;28;20377;-76
2021/06/25 06:50:18;;;;;;;14.57;10.27;;;16.00;99.90;;;;;;5085726;28;20364;-76
2021/06/25 06:52:47;;;;;;;15.13;10.90;;;16.00;99.90;;;;;;5032630;28;20045;-75
2021/06/25 06:55:16;;;;;;;15.40;11.27;;;16.00;99.90;;;;;;5085388;28;20199;-75
2021/06/25 06:57:45;;;;;;;12.70;10.55;;;16.10;99.90;;;;;;5065314;28;20040;-76
2021/06/25 07:00:12;;;;;;;14.02;10.70;;;16.10;99.90;;;;;;5087284;28;20048;-76
2021/06/25 07:02:41;;;;;;;13.95;11.20;;;16.20;99.90;;;;;;5091657;28;20047;-76
2021/06/25 07:05:09;;;;;;;17.55;10.85;;;16.20;99.90;;;;;;5091940;28;20063;-75
2021/06/25 07:07:35;;;;;;;15.95;10.80;;;16.30;99.90;;;;;;5091957;28;20039;-75
2021/06/25 07:10:02;;;;;;;14.18;10.23;;;16.40;99.90;;;;;;5090908;28;20040;-74
2021/06/25 07:12:28;;;;;;;18.25;11.20;;;16.50;99.90;;;;;;5091515;28;20040;-75
2021/06/25 07:14:54;;;;;;;12.07;10.35;;;16.60;99.90;;;;;;5069000;28;20436;-76
2021/06/25 07:17:20;;;;;;;16.67;9.65;;;16.80;99.90;;;;;;5048102;28;20090;-75
2021/06/25 07:19:47;;;;;;;;;;;16.80;99.90;;;;;;5072701;28;20037;-76
2021/06/25 07:22:13;;;;;;;10.80;8.48;;;16.80;99.90;;;;;;5082522;28;19961;-76
2021/06/25 07:24:39;;;;;;;12.73;9.82;;;16.80;99.90;;;;;;5092149;28;20044;-76
2021/06/25 07:27:05;;;;;;;;;;;16.90;99.90;;;;;;5072320;28;20032;-76
2021/06/25 07:29:32;;;;;;;12.30;9.23;;;17.00;99.90;;;;;;5072986;28;19916;-76
2021/06/25 07:31:57;;;;;;;11.93;8.95;;;17.20;99.90;;;;;;5091653;28;20043;-75
2021/06/25 07:34:24;;;;;;;15.35;9.48;;;17.30;99.90;;;;;;5053436;28;20045;-75
2021/06/25 07:36:50;;;;;;;11.30;9.13;;;17.30;99.90;;;;;;5082457;28;20040;-75
2021/06/25 07:39:16;;;;;;;11.60;9.15;;;17.30;99.90;;;;;;5072245;28;20113;-75
2021/06/25 07:41:42;;;;;;;11.52;8.77;;;17.40;99.90;;;;;;5090420;28;20065;-76
2021/06/25 07:44:07;;;;;;;;;;;17.50;99.90;;;;;;5072854;28;20111;-75
2021/06/25 07:46:33;;;;;;;10.77;9.13;;;17.50;99.90;;;;;;5090778;28;19920;-76
2021/06/25 07:48:59;;;;;;;;;;;17.60;99.90;;;;;;5091083;28;20412;-76
2021/06/25 07:51:25;;;;;;;18.65;8.82;;;17.70;99.90;;;;;;5061636;28;19916;-76
2021/06/25 07:53:52;;;;;;;;;;;17.90;99.90;;;;;;5089318;28;20119;-76
2021/06/25 07:56:19;;;;;;;11.02;8.43;;;18.10;99.90;;;;;;5089741;28;19916;-76
2021/06/25 07:58:45;;;;;;;11.43;8.90;;;18.50;99.90;;;;;;5093624;28;20038;-77
2021/06/25 08:01:10;;;;;;;;;;;18.70;99.90;;;;;;5095024;28;20043;-76
2021/06/25 08:03:37;;;;;;;11.97;8.90;;;18.80;99.90;;;;;;5076806;28;20375;-75
2021/06/25 08:06:03;;;;;;;;;;;19.00;99.90;;;;;;5066848;28;20121;-74
2021/06/25 08:08:28;;;;;;;11.50;7.85;;;19.20;99.90;;;;;;5085882;28;19956;-75
2021/06/25 08:10:54;;;;;;;;;;;19.40;99.90;;;;;;5022487;28;20036;-76
2021/06/25 08:13:20;;;;;;;11.68;7.63;;;19.50;99.90;;;;;;5087174;28;19916;-75
2021/06/25 08:15:49;;;;;;;;;;;19.60;99.90;;;;;;5084429;28;20052;-76
2021/06/25 08:18:16;;;;;;;10.43;7.88;;;19.70;99.90;;;;;;5093847;28;19920;-76
2021/06/25 08:20:42;;;;;;;9.52;7.70;;;19.80;99.90;;;;;;5075521;28;20131;-73
2021/06/25 08:23:08;;;;;;;10.88;7.15;;;19.90;99.90;;;;;;5075357;28;20042;-75
2021/06/25 08:25:34;;;;;;;8.75;7.65;;;19.90;99.90;;;;;;5063471;28;20069;-76
2021/06/25 08:27:59;;;;;;;;;;;20.10;99.90;;;;;;5076066;28;20032;-76
2021/06/25 08:30:26;;;;;;;9.57;7.70;;;20.20;99.90;;;;;;5094339;28;20010;-75
2021/06/25 08:32:53;;;;;;;10.65;7.30;;;20.30;99.90;;;;;;5074574;28;20036;-75
2021/06/25 08:35:21;;;;;;;8.32;7.25;;;20.50;99.90;;;;;;5063726;28;20071;-75
2021/06/25 08:37:48;;;;;;;10.95;8.85;;;20.60;99.90;;;;;;5094008;28;20085;-77
2021/06/25 08:40:14;;;;;;;9.70;7.65;;;20.70;99.60;;;;;;5093128;28;20047;-76
2021/06/25 08:42:40;;;;;;;10.98;7.85;;;20.50;99.90;;;;;;5069209;28;20040;-76
2021/06/25 08:45:08;;;;;;;9.65;7.60;;;20.50;99.90;;;;;;5087025;28;20416;-76
2021/06/25 08:47:55;;;;;;;10.57;7.70;;;20.50;99.90;;;;;;5094144;28;20110;-76
2021/06/25 08:50:24;;;;;;;9.13;7.65;;;20.60;99.90;;;;;;5096007;28;20040;-76
2021/06/25 08:52:52;;;;;;;10.85;8.48;;;20.50;99.40;;;;;;5094488;28;20176;-76
2021/06/25 08:55:19;;;;;;;17.17;9.52;;;20.50;97.90;;;;;;5091921;28;20035;-76
2021/06/25 08:57:45;;;;;;;11.38;8.55;;;20.30;98.20;;;;;;5065345;28;20036;-76
2021/06/25 09:00:14;;;;;;;10.40;7.95;;;20.20;99.30;;;;;;5089796;28;20092;-75
2021/06/25 09:02:40;;;;;;;11.35;8.07;;;20.10;99.90;;;;;;5075462;28;20132;-75
2021/06/25 09:05:22;;;;;;;12.23;8.48;;;20.10;99.90;;;;;;5092822;28;20048;-76
2021/06/25 09:07:49;;;;;;;13.70;9.23;;;20.00;99.90;;;;;;5077504;28;20044;-75
2021/06/25 09:10:16;;;;;;;12.70;7.93;;;20.00;99.90;;;;;;5077156;28;20067;-75
2021/06/25 09:13:12;;;;;;;9.57;7.25;;;19.90;99.70;;;;;;5093164;28;20416;-75
2021/06/25 09:15:42;;;;;;;12.15;7.95;;;19.90;99.90;;;;;;5093457;28;20047;-76
2021/06/25 09:18:12;;;;;;;13.80;7.88;;;19.90;99.30;;;;;;5092428;28;20042;-76
2021/06/25 09:20:47;;;;;;;9.13;7.40;;;19.90;99.30;;;;;;5093193;28;20036;-75
2021/06/25 09:23:29;;;;;;;8.82;6.97;;;19.90;97.70;;;;;;5093035;28;20118;-76
2021/06/25 09:25:57;;;;;;;8.52;6.32;;;19.80;98.70;;;;;;5092870;28;20032;-75
2021/06/25 09:28:34;;;;;;;9.75;7.35;;;19.90;99.90;;;;;;5093984;28;20050;-76
2021/06/25 09:31:00;;;;;;;7.20;6.50;;;20.10;99.50;;;;;;5093936;28;20101;-76
2021/06/25 09:33:26;;;;;;;8.85;7.43;;;20.30;97.90;;;;;;5090791;28;20040;-75
2021/06/25 09:35:54;;;;;;;10.80;7.18;;;20.30;96.80;;;;;;5074555;28;20079;-76
2021/06/25 09:38:39;;;;;;;8.05;7.07;;;20.20;95.50;;;;;;5074352;28;20492;-75
2021/06/25 09:41:19;;;;;;;12.27;7.68;;;20.30;95.90;;;;;;5054946;28;20162;-74
2021/06/25 09:44:08;;;;;;;9.27;6.72;;;20.50;95.50;;;;;;5087205;28;20066;-76
2021/06/25 09:46:42;;;;;;;9.45;6.55;;;20.60;96.80;;;;;;5074595;28;20130;-75
2021/06/25 09:49:13;;;;;;;8.63;6.88;;;20.80;96.60;;;;;;5074403;28;20459;-75
2021/06/25 09:52:00;;;;;;;11.23;7.47;;;20.90;94.70;;;;;;5092722;28;20089;-75
2021/06/25 09:54:27;;;;;;;10.88;7.10;;;21.00;95.60;;;;;;5082135;28;20166;-74
2021/06/25 09:57:12;;;;;;;12.60;7.05;;;21.00;94.30;;;;;;5091908;28;20074;-74
2021/06/25 10:02:20;;;;;;;10.63;7.53;;;20.80;92.80;;;;;;5091477;28;20039;-76
2021/06/25 10:04:47;;;;;;;10.02;7.47;;;20.60;93.30;;;;;;5092050;28;20028;-75
2021/06/25 10:07:16;;;;;;;10.15;7.75;;;20.50;93.20;;;;;;5066041;28;20041;-75
2021/06/25 10:09:44;;;;;;;8.68;6.63;;;20.50;94.10;;;;;;5066614;28;20060;-75
2021/06/25 10:12:12;;;;;;;10.00;7.57;;;20.30;94.40;;;;;;5091336;28;20036;-75
2021/06/25 10:14:40;;;;;;;9.77;7.70;;;20.50;95.50;;;;;;5060479;28;20047;-75
2021/06/25 10:17:09;;;;;;;10.07;7.53;;;20.60;93.80;;;;;;5065135;28;20045;-76
2021/06/25 10:19:41;;;;;;;11.25;7.30;;;20.70;94.30;;;;;;5087991;28;20060;-75
2021/06/25 10:22:12;;;;;;;9.93;7.82;;;20.80;92.90;;;;;;5091229;28;20119;-75
2021/06/25 10:24:43;;;;;;;10.52;7.63;;;21.00;92.20;;;;;;5073886;28;20040;-76
2021/06/25 10:27:11;;;;;;;9.85;7.65;;;21.10;90.90;;;;;;5047363;28;20492;-76
2021/06/25 10:29:38;;;;;;;12.30;7.60;;;21.20;91.60;;;;;;5092307;28;20115;-76
2021/06/25 10:32:09;;;;;;;10.25;7.22;;;21.40;91.90;;;;;;5091563;28;20036;-76
2021/06/25 10:34:37;;;;;;;11.23;7.78;;;21.80;93.30;;;;;;5076209;28;20123;-76
2021/06/25 10:37:06;;;;;;;12.00;8.05;;;22.00;92.10;;;;;;5091575;28;20064;-76
2021/06/25 10:39:33;;;;;;;11.32;8.00;;;22.20;90.00;;;;;;5091558;28;20036;-75
2021/06/25 10:42:02;;;;;;;11.43;7.82;;;22.30;89.40;;;;;;5072583;28;20040;-76
2021/06/25 10:44:37;;;;;;;10.88;7.82;;;22.50;83.60;;;;;;5056997;28;20119;-76
2021/06/25 10:47:23;;;;;;;11.07;7.93;;;22.50;82.00;;;;;;5091462;28;20036;-75
2021/06/25 10:50:02;;;;;;;12.57;8.68;;;22.50;82.90;;;;;;5074285;28;20036;-75
2021/06/25 10:52:38;;;;;;;10.38;8.65;;;22.50;79.00;;;;;;5054505;28;20139;-75
2021/06/25 10:55:18;;;;;;;10.25;7.80;;;22.50;78.80;;;;;;5083321;28;20040;-76
2021/06/25 10:57:50;;;;;;;10.52;8.40;;;22.40;79.90;;;;;;5091538;28;20060;-76
2021/06/25 11:00:37;;;;;;;11.85;7.28;;;22.40;81.40;;;;;;5059062;28;20043;-76
2021/06/25 11:03:03;;;;;;;11.70;7.72;;;22.40;82.50;;;;;;5074460;28;20047;-77
2021/06/25 11:05:32;;;;;;;9.55;7.60;;;22.50;81.30;;;;;;5090973;28;20036;-76
2021/06/25 11:08:00;;;;;;;9.32;6.72;;;22.60;81.90;;;;;;5061783;28;20240;-75
2021/06/25 11:10:30;;;;;;;12.50;8.27;;;22.60;80.90;;;;;;5077459;28;20036;-76
2021/06/25 11:13:11;;;;;;;10.82;7.40;;;22.60;79.30;;;;;;5091536;28;20047;-76
2021/06/25 11:15:39;;;;;;;9.02;7.28;;;22.70;76.30;;;;;;5072964;28;20086;-76
2021/06/25 11:18:15;;;;;;;9.32;7.55;;;22.60;79.30;;;;;;5091116;28;20047;-76
2021/06/25 11:20:57;;;;;;;8.90;7.05;;;22.80;79.80;;;;;;5090820;28;20044;-76
2021/06/25 11:23:28;;;;;;;8.63;7.10;;;22.90;77.90;;;;;;5091248;28;20055;-76
2021/06/25 11:25:53;;;;;;;12.60;8.73;;;23.00;77.30;;;;;;5090038;28;20107;-77
2021/06/25 11:28:36;;;;;;;10.07;7.93;;;23.10;75.60;;;;;;5090763;28;20119;-76
2021/06/25 11:31:14;;;;;;;11.25;9.00;;;23.10;77.50;;;;;;5091289;28;20153;-76
2021/06/25 11:34:17;;;;;;;11.15;9.05;;;23.20;77.70;;;;;;5061749;28;20036;-76
2021/06/25 11:36:52;;;;;;;13.88;9.30;;;23.20;75.50;;;;;;5081717;28;20493;-77
2021/06/25 11:39:33;;;;;;;12.90;9.02;;;23.10;75.70;;;;;;5077141;28;20512;-75
2021/06/25 11:42:06;;;;;;;13.02;9.10;;;23.00;76.00;;;;;;5094153;28;20118;-75
2021/06/25 11:44:41;;;;;;;13.10;9.75;;;23.00;77.20;;;;;;5076770;28;20028;-75
2021/06/25 11:47:11;;;;;;;15.25;10.18;;;23.30;75.70;;;;;;5095252;28;20042;-76
2021/06/25 11:52:15;;;;;;;14.50;9.38;;;23.30;71.90;;;;;;5093813;28;20048;-75
2021/06/25 11:54:43;;;;;;;14.52;10.27;;;23.30;76.30;;;;;;5065475;28;20040;-75
2021/06/25 11:57:17;;;;;;;12.95;9.68;;;23.70;75.10;;;;;;5074530;28;20040;-76
2021/06/25 12:00:07;;;;;;;15.48;11.55;;;23.90;75.60;;;;;;5087093;28;20036;-75
2021/06/25 12:02:46;;;;;;;14.55;10.57;;;24.30;75.40;;;;;;5084306;28;20043;-76
2021/06/25 12:05:14;;;;;;;14.18;10.70;;;24.60;73.50;;;;;;5076579;28;20032;-76
2021/06/25 12:07:40;;;;;;;15.02;11.15;;;24.70;73.00;;;;;;5094776;28;20044;-76
2021/06/25 12:10:07;;;;;;;13.15;10.68;;;24.80;69.80;;;;;;5075411;28;20500;-74
2021/06/25 12:12:35;;;;;;;13.23;10.50;;;24.70;72.10;;;;;;5094490;28;20119;-76
2021/06/25 12:15:11;;;;;;;14.80;11.00;;;24.70;73.40;;;;;;5076138;28;20047;-75
2021/06/25 12:17:54;;;;;;;14.03;10.13;;;24.80;74.30;;;;;;5093912;28;20046;-76
2021/06/25 12:20:24;;;;;;;15.55;11.75;;;24.90;74.50;;;;;;5092995;28;20035;-75
2021/06/25 12:23:02;;;;;;;19.25;12.32;;;24.80;73.40;;;;;;5075610;28;20485;-76
2021/06/25 12:25:41;;;;;;;12.82;11.43;;;24.60;72.70;;;;;;5092426;28;20064;-76
2021/06/25 12:28:09;;;;;;;17.67;13.23;;;24.40;74.30;;;;;;5094203;28;20113;-76
2021/06/25 12:30:40;;;;;;;16.95;12.52;;;24.20;75.10;;;;;;5093476;28;20553;-75
2021/06/25 12:33:07;;;;;;;17.98;13.48;;;24.00;75.90;;;;;;5076782;28;20039;-76
2021/06/25 12:35:54;;;;;;;18.95;13.02;;;23.70;76.00;;;;;;5075340;28;20036;-76
2021/06/25 12:38:30;;;;;;;18.65;13.05;;;23.50;77.50;;;;;;5074307;28;20117;-76
2021/06/25 12:41:02;;;;;;;21.13;14.15;;;23.30;79.90;;;;;;5092886;28;20063;-76
2021/06/25 12:43:37;;;;;;;18.67;14.38;;;23.40;79.00;;;;;;5093442;28;20039;-75
2021/06/25 12:46:11;;;;;;;18.77;14.00;;;23.50;78.70;;;;;;5094197;28;20089;-76
2021/06/25 12:48:50;;;;;;;19.02;13.40;;;23.60;76.40;;;;;;5093250;28;20038;-76
2021/06/25 12:51:22;;;;;;;16.25;13.02;;;23.60;77.90;;;;;;5074722;28;20111;-76
2021/06/25 12:53:50;;;;;;;16.65;14.43;;;23.70;79.00;;;;;;5093160;28;20046;-75
2021/06/25 12:56:20;;;;;;;17.80;14.15;;;23.90;77.30;;;;;;5093243;28;20115;-75
2021/06/25 12:58:49;;;;;;;20.02;15.02;;;23.90;77.20;;;;;;5093177;28;20028;-76
2021/06/25 13:01:15;;;;;;;23.30;16.10;;;23.90;77.50;;;;;;5085973;28;20109;-76
2021/06/25 13:03:46;;;;;;;20.65;15.63;;;23.80;78.20;;;;;;5094204;28;20477;-76
2021/06/25 13:06:35;;;;;;;21.38;15.18;;;23.70;79.10;;;;;;5093614;28;20425;-77